Los Alamos, NM

1:11 AM MDT on September 28, 2016 (GMT -0600)
Los Alamos

Weather History for KLAM - June, 2013

Change the Weather History Date:

Saturday, June 1, 2013

  Actual Average Record
Temperature  
Mean Temperature 66 °F -  
Max Temperature 76 °F 71 °F 89 °F (1956)
Min Temperature 55 °F 45 °F 33 °F (1964)
Growing Degree Days 16 (Base 50)    
Moisture  
Dew Point 11 °F    
Average Humidity 13    
Maximum Humidity 27    
Minimum Humidity 7    
Precipitation  
Precipitation 0.00 in - - ()
Sea Level Pressure  
Sea Level Pressure 30.22 in    
Wind  
Wind Speed 9 mph (NE)    
Max Wind Speed 16 mph    
Max Gust Speed 25 mph    
Visibility 10 miles    
Events      
Averages and records for this station are not official NWS values.
T = Trace of Precipitation, MM = Missing Value Source: NWS Daily Summary

Daily Weather History Graph

Daily Weather History Graph

Search for Another Location

Airport or City:

Trip Planner

Search our weather history database for the weather conditions in past years. The results will help you decide how hot, cold, wet, or windy it might be!

Date:

Astronomy

Jun. 01, 2013 Rise Set
Actual Time 5:49 AM MDT 8:16 PM MDT
Civil Twilight 5:20 AM MDT 8:46 PM MDT
Nautical Twilight 4:43 AM MDT 9:22 PM MDT
Astronomical Twilight 4:03 AM MDT 10:03 PM MDT
Moon 1:35 AM MDT (6/1) 1:59 PM MDT (6/1)
Length of Visible Light 15h 25m
Length of Day
14h 26m
Last Quarter, 40% of the Moon is Illuminated
Jun 1
Last Quarter
Jun 8
New
Jun 16
First Quarter
Jun 23
Full
Jun 29
Last Quarter

Hourly Weather History & Observations

Time (MDT) Temp. Dew Point Humidity Pressure Visibility Wind Dir Wind Speed Gust Speed Precip Events Conditions
12:15 AM 61.9 °F 9.1 °F 13% 30.19 in 10.0 mi WNW 6.9 mph 18.4 mph N/A   Clear
12:35 AM 61.5 °F 9.1 °F 13% 30.17 in 10.0 mi NW 8.1 mph - N/A   Clear
12:55 AM 61.7 °F 9.5 °F 13% 30.17 in 10.0 mi NW 11.5 mph 18.4 mph N/A   Clear
1:15 AM 60.1 °F 9.0 °F 13% 30.17 in 10.0 mi NW 9.2 mph - N/A   Clear
1:35 AM 59.7 °F 8.6 °F 13% 30.18 in 10.0 mi NNW 13.8 mph 20.7 mph N/A   Clear
1:55 AM 58.6 °F 8.1 °F 13% 30.18 in 10.0 mi NNW 15.0 mph 18.4 mph N/A   Clear
2:15 AM 59.0 °F 7.7 °F 13% 30.18 in 10.0 mi North 13.8 mph 17.3 mph N/A   Clear
2:35 AM 58.3 °F 7.7 °F 13% 30.18 in 10.0 mi North 12.7 mph - N/A   Clear
2:55 AM 56.5 °F 7.7 °F 14% 30.19 in 10.0 mi North 10.4 mph - N/A   Clear
3:15 AM 55.6 °F 7.7 °F 15% 30.18 in 10.0 mi North 13.8 mph - N/A   Clear
3:35 AM 56.1 °F 7.7 °F 14% 30.18 in 10.0 mi NNW 13.8 mph 19.6 mph N/A   Clear
3:55 AM 55.4 °F 7.3 °F 15% 30.18 in 10.0 mi North 13.8 mph - N/A   Clear
4:15 AM 56.3 °F 7.7 °F 14% 30.19 in 10.0 mi NNW 9.2 mph 16.1 mph N/A   Clear
4:35 AM 55.9 °F 7.7 °F 15% 30.19 in 10.0 mi NNW 8.1 mph - N/A   Clear
4:55 AM 55.4 °F 8.4 °F 15% 30.19 in 10.0 mi NW 10.4 mph - N/A   Clear
5:15 AM 55.6 °F 9.0 °F 16% 30.19 in 10.0 mi NNW 9.2 mph - N/A   Clear
5:35 AM 55.2 °F 9.3 °F 16% 30.20 in 10.0 mi NNW 8.1 mph - N/A   Clear
5:55 AM 55.2 °F 9.3 °F 16% 30.21 in 10.0 mi NNW 9.2 mph - N/A   Clear
6:15 AM 55.8 °F 9.1 °F 16% 30.22 in 10.0 mi NNW 10.4 mph - N/A   Clear
6:35 AM 56.7 °F 9.5 °F 15% 30.22 in 10.0 mi NNW 8.1 mph - N/A   Clear
6:55 AM 57.6 °F 9.7 °F 15% 30.23 in 10.0 mi North 11.5 mph - N/A   Clear
7:15 AM 57.6 °F 10.2 °F 15% 30.24 in 10.0 mi North 6.9 mph - N/A   Clear
7:35 AM 55.0 °F 10.0 °F 17% 30.25 in 10.0 mi NE 3.5 mph - N/A   Clear
7:55 AM 57.7 °F 9.9 °F 15% 30.26 in 10.0 mi North 6.9 mph - N/A   Clear
8:15 AM 59.2 °F 9.7 °F 14% 30.26 in 10.0 mi North 15.0 mph 20.7 mph N/A   Clear
8:35 AM 59.4 °F 9.3 °F 14% 30.26 in 10.0 mi North 10.4 mph 18.4 mph N/A   Clear
8:55 AM 59.4 °F 9.1 °F 14% 30.27 in 10.0 mi NNW 15.0 mph 19.6 mph N/A   Clear
9:15 AM 60.8 °F 8.6 °F 13% 30.27 in 10.0 mi North 16.1 mph 25.3 mph N/A   Clear
9:35 AM 61.3 °F 9.0 °F 13% 30.26 in 10.0 mi NE 15.0 mph 20.7 mph N/A   Clear
9:55 AM 61.5 °F 9.1 °F 13% 30.26 in 10.0 mi North 10.4 mph 21.9 mph N/A   Clear
10:15 AM 63.5 °F 9.7 °F 12% 30.26 in 10.0 mi NE 11.5 mph 19.6 mph N/A   Clear
10:35 AM 64.8 °F 9.1 °F 11% 30.26 in 10.0 mi NNW 9.2 mph - N/A   Clear
10:55 AM 64.8 °F 9.0 °F 11% 30.26 in 10.0 mi NNE 5.8 mph - N/A   Clear
11:15 AM 65.1 °F 8.6 °F 11% 30.26 in 10.0 mi West 4.6 mph - N/A   Clear
11:35 AM 66.2 °F 9.0 °F 11% 30.25 in 10.0 mi East 10.4 mph - N/A   Clear
11:55 AM 67.8 °F 9.5 °F 10% 30.25 in 10.0 mi ENE 6.9 mph - N/A   Clear
12:15 PM 67.5 °F 9.5 °F 10% 30.24 in 10.0 mi ENE 5.8 mph - N/A   Clear
12:35 PM 67.5 °F 9.5 °F 10% 30.23 in 10.0 mi Calm Calm - N/A   Clear
12:55 PM 71.2 °F 10.6 °F 10% 30.23 in 10.0 mi NNE 5.8 mph - N/A   Clear
1:15 PM 71.8 °F 10.4 °F 9% 30.23 in 10.0 mi ESE 6.9 mph - N/A   Clear
1:35 PM 72.3 °F 10.9 °F 9% 30.23 in 10.0 mi Calm Calm - N/A   Clear
1:55 PM 72.1 °F 10.4 °F 9% 30.22 in 10.0 mi NE 5.8 mph 16.1 mph N/A   Clear
2:15 PM 74.1 °F 11.3 °F 9% 30.22 in 10.0 mi East 10.4 mph - N/A   Clear
2:35 PM 73.9 °F 11.1 °F 9% 30.21 in 10.0 mi NNE 6.9 mph - N/A   Clear
2:55 PM 75.7 °F 11.8 °F 9% 30.21 in 10.0 mi East 6.9 mph - N/A   Clear
3:15 PM 74.7 °F 11.1 °F 9% 30.20 in 10.0 mi East 6.9 mph - N/A   Clear
3:35 PM 75.9 °F 11.7 °F 9% 30.20 in 10.0 mi East 6.9 mph - N/A   Scattered Clouds
3:55 PM 75.2 °F 11.3 °F 9% 30.20 in 10.0 mi ESE 9.2 mph - N/A   Scattered Clouds
4:15 PM 76.3 °F 11.3 °F 8% 30.19 in 10.0 mi ESE 10.4 mph 16.1 mph N/A   Mostly Cloudy
4:35 PM 75.9 °F 10.8 °F 8% 30.19 in 10.0 mi South 8.1 mph - N/A   Scattered Clouds
4:55 PM 75.0 °F 10.6 °F 8% 30.19 in 10.0 mi SSW 5.8 mph - N/A   Clear
5:15 PM 75.0 °F 9.3 °F 8% 30.19 in 10.0 mi SSW 4.6 mph - N/A   Clear
5:35 PM 75.7 °F 8.8 °F 8% 30.18 in 10.0 mi SE 6.9 mph 16.1 mph N/A   Clear
5:55 PM 75.9 °F 7.9 °F 7% 30.18 in 10.0 mi SSE 6.9 mph - N/A   Clear
6:15 PM 76.1 °F 6.6 °F 7% 30.18 in 10.0 mi SE 4.6 mph 9.2 mph N/A   Clear
6:35 PM 76.1 °F 5.9 °F 7% 30.18 in 10.0 mi SE 8.1 mph 18.4 mph N/A   Clear
6:55 PM 75.4 °F 5.4 °F 7% 30.19 in 10.0 mi ESE 5.8 mph - N/A   Clear
7:15 PM 75.2 °F 5.0 °F 7% 30.19 in 10.0 mi ESE 8.1 mph - N/A   Clear
7:35 PM 74.7 °F 5.0 °F 7% 30.20 in 10.0 mi SSE 8.1 mph - N/A   Clear
7:55 PM 74.1 °F 5.0 °F 7% 30.20 in 10.0 mi South 9.2 mph 16.1 mph N/A   Clear
8:15 PM 73.0 °F 5.0 °F 7% 30.21 in 10.0 mi SSE 11.5 mph 17.3 mph N/A   Scattered Clouds
8:35 PM 72.5 °F 5.0 °F 7% 30.21 in 10.0 mi South 8.1 mph - N/A   Overcast
8:55 PM 70.2 °F 20.3 °F 15% 30.23 in 10.0 mi SE 8.1 mph 18.4 mph N/A   Scattered Clouds
9:15 PM 68.9 °F 28.8 °F 22% 30.25 in 10.0 mi SE 11.5 mph 19.6 mph N/A   Clear
9:35 PM 67.5 °F 28.9 °F 24% 30.26 in 10.0 mi South 8.1 mph 24.2 mph N/A   Clear
9:55 PM 66.6 °F 28.9 °F 24% 30.27 in 10.0 mi South 11.5 mph - N/A   Clear
10:15 PM 66.2 °F 28.8 °F 25% 30.29 in 10.0 mi SSE 9.2 mph 16.1 mph N/A   Clear
10:35 PM 65.7 °F 28.8 °F 25% 30.29 in 10.0 mi South 10.4 mph 19.6 mph N/A   Clear
10:55 PM 65.1 °F 28.4 °F 25% 30.29 in 10.0 mi South 10.4 mph 19.6 mph N/A   Clear
11:15 PM 64.6 °F 28.4 °F 26% 30.29 in 10.0 mi SSE 13.8 mph 20.7 mph N/A   Clear
11:35 PM 64.0 °F 28.4 °F 26% 30.29 in 10.0 mi South 9.2 mph 17.3 mph N/A   Clear
11:55 PM 63.3 °F 28.2 °F 27% 30.30 in 10.0 mi South 11.5 mph 16.1 mph N/A   Clear